createdAt,value
2022-11-01T00:02:17.090Z,13.23
2022-11-01T00:04:43.926Z,13.46
2022-11-01T00:07:12.774Z,13.85
2022-11-01T00:09:43.650Z,13.54
2022-11-01T00:12:16.917Z,13.61
2022-11-01T00:14:46.302Z,13.87
2022-11-01T00:17:12.958Z,13.13
2022-11-01T00:19:39.614Z,13.83
2022-11-01T00:22:10.764Z,13.73
2022-11-01T00:24:40.407Z,13.15
2022-11-01T00:27:09.529Z,13.34
2022-11-01T00:29:42.078Z,13.21
2022-11-01T00:32:13.228Z,13.52
2022-11-01T00:34:42.100Z,13.82
2022-11-01T00:37:10.848Z,13.82
2022-11-01T00:39:39.923Z,13.38
2022-11-01T00:42:08.809Z,13.84
2022-11-01T00:44:37.576Z,13.83
2022-11-01T00:47:08.874Z,13.80
2022-11-01T00:49:35.556Z,13.74
2022-11-01T00:52:02.226Z,13.45
2022-11-01T00:54:28.937Z,13.28
2022-11-01T00:56:55.686Z,13.90
2022-11-01T00:59:22.808Z,13.14
2022-11-01T01:01:51.987Z,13.44
2022-11-01T01:04:21.013Z,13.74
2022-11-01T01:06:47.791Z,13.94
2022-11-01T01:09:17.079Z,13.55
2022-11-01T01:11:45.997Z,13.77
2022-11-01T01:14:12.691Z,12.64
2022-11-01T01:19:15.919Z,13.35
2022-11-01T01:21:42.689Z,13.81
2022-11-01T01:24:09.448Z,13.98
2022-11-01T01:26:38.760Z,13.66
2022-11-01T01:29:07.717Z,13.92
2022-11-01T01:31:34.411Z,13.76
2022-11-01T01:34:01.466Z,13.84
2022-11-01T01:36:28.139Z,13.61
2022-11-01T01:39:00.006Z,13.93
2022-11-01T01:41:45.252Z,13.86
2022-11-01T01:44:52.200Z,13.93
2022-11-01T01:47:26.582Z,13.97
2022-11-01T01:50:15.663Z,13.56
2022-11-01T01:52:52.599Z,13.94
2022-11-01T01:55:29.097Z,13.53
2022-11-01T01:58:00.106Z,13.98
2022-11-01T02:00:27.083Z,13.05
2022-11-01T02:02:53.882Z,13.27
2022-11-01T02:05:26.542Z,13.89
2022-11-01T02:07:53.572Z,13.70
2022-11-01T02:10:20.766Z,13.31
2022-11-01T02:12:48.501Z,13.78
2022-11-01T02:15:16.830Z,13.19
2022-11-01T02:17:48.879Z,13.43
2022-11-01T02:20:53.268Z,13.32
2022-11-01T02:23:19.915Z,13.87
2022-11-01T02:26:23.597Z,13.71
2022-11-01T02:29:12.246Z,13.88
2022-11-01T02:32:02.688Z,13.87
2022-11-01T02:34:44.830Z,13.88
2022-11-01T02:37:13.557Z,13.87
2022-11-01T02:40:02.336Z,13.53
2022-11-01T02:42:32.880Z,13.55
2022-11-01T02:45:10.468Z,13.40
2022-11-01T02:47:38.182Z,13.52
2022-11-01T02:50:07.141Z,13.81
2022-11-01T02:52:37.984Z,13.62
2022-11-01T02:55:30.017Z,12.98
2022-11-01T02:58:05.433Z,13.69
2022-11-01T03:00:35.179Z,13.45
2022-11-01T03:03:19.501Z,13.24
2022-11-01T03:05:52.147Z,13.65
2022-11-01T03:08:30.143Z,13.57
2022-11-01T03:11:18.950Z,13.40
2022-11-01T03:14:01.584Z,13.44
2022-11-01T03:16:34.333Z,13.41
2022-11-01T03:19:24.596Z,13.38
2022-11-01T03:22:11.639Z,13.35
2022-11-01T03:24:50.538Z,12.81
2022-11-01T03:27:40.516Z,13.46
2022-11-01T03:30:14.257Z,13.38
2022-11-01T03:32:47.682Z,13.36
2022-11-01T03:35:18.343Z,13.30
2022-11-01T03:37:46.215Z,13.00
2022-11-01T03:40:16.947Z,12.13
2022-11-01T03:42:49.422Z,13.31
2022-11-01T03:47:54.045Z,12.56
2022-11-01T03:50:27.470Z,13.12
2022-11-01T03:52:54.853Z,12.33
2022-11-01T03:55:22.059Z,13.35
2022-11-01T03:57:57.265Z,12.19
2022-11-01T04:00:29.310Z,13.42
2022-11-01T04:02:58.650Z,13.40
2022-11-01T04:05:30.516Z,13.32
2022-11-01T04:08:02.700Z,13.16
2022-11-01T04:10:29.744Z,13.45
2022-11-01T04:13:03.293Z,12.68
2022-11-01T04:15:51.743Z,13.40
2022-11-01T04:18:42.489Z,13.04
2022-11-01T04:21:17.980Z,13.16
2022-11-01T04:23:47.454Z,13.47
2022-11-01T04:26:19.519Z,13.46
2022-11-01T04:28:59.479Z,13.32
2022-11-01T04:31:33.605Z,13.42
2022-11-01T04:34:05.593Z,13.41
2022-11-01T04:36:34.456Z,12.99
2022-11-01T04:39:01.176Z,12.74
2022-11-01T04:41:29.423Z,13.24
2022-11-01T04:43:57.984Z,12.54
2022-11-01T04:46:24.675Z,12.48
2022-11-01T04:48:53.558Z,12.74
2022-11-01T04:51:22.591Z,12.65
2022-11-01T04:53:54.107Z,12.97
2022-11-01T04:56:22.211Z,13.48
2022-11-01T04:58:51.344Z,12.75
2022-11-01T05:01:18.248Z,13.38
2022-11-01T05:03:45.069Z,13.19
2022-11-01T05:06:14.030Z,12.72
2022-11-01T05:08:43.100Z,12.77
2022-11-01T05:11:15.363Z,13.27
2022-11-01T05:13:49.064Z,13.29
2022-11-01T05:16:20.025Z,12.74
2022-11-01T05:18:47.737Z,12.87
2022-11-01T05:21:20.381Z,12.58
2022-11-01T05:23:49.231Z,13.01
2022-11-01T05:26:18.197Z,13.13
2022-11-01T05:28:44.880Z,12.61
2022-11-01T05:31:11.690Z,13.23
2022-11-01T05:33:40.809Z,12.74
2022-11-01T05:36:07.901Z,12.54
2022-11-01T05:38:34.565Z,11.80
2022-11-01T05:41:07.582Z,12.50
2022-11-01T05:43:34.422Z,11.99
2022-11-01T05:46:04.740Z,12.31
2022-11-01T05:48:31.586Z,13.26
2022-11-01T05:50:59.484Z,13.18
2022-11-01T05:53:28.508Z,13.30
2022-11-01T05:56:00.463Z,13.22
2022-11-01T05:58:30.981Z,13.17
2022-11-01T06:01:05.783Z,13.19
2022-11-01T06:03:35.782Z,13.14
2022-11-01T06:06:05.765Z,12.89
2022-11-01T06:08:32.492Z,12.70
2022-11-01T06:11:03.550Z,12.77
2022-11-01T06:13:35.791Z,12.64
2022-11-01T06:16:05.896Z,13.07
2022-11-01T06:18:35.518Z,12.31
2022-11-01T06:21:04.484Z,12.76
2022-11-01T06:23:31.161Z,12.46
2022-11-01T06:26:07.337Z,12.95
2022-11-01T06:28:36.326Z,12.42
2022-11-01T06:33:39.811Z,12.85
2022-11-01T06:36:08.953Z,12.88
2022-11-01T06:38:35.913Z,12.97
2022-11-01T06:41:02.835Z,13.02
2022-11-01T06:43:30.243Z,12.70
2022-11-01T06:45:59.945Z,12.10
2022-11-01T06:48:27.233Z,13.01
2022-11-01T06:50:55.808Z,12.20
2022-11-01T06:53:23.751Z,12.74
2022-11-01T06:55:51.486Z,13.19
2022-11-01T06:58:23.292Z,13.10
2022-11-01T07:00:50.230Z,12.65
2022-11-01T07:03:19.254Z,13.20
2022-11-01T07:05:49.241Z,12.24
2022-11-01T07:08:18.529Z,12.95
2022-11-01T07:10:45.224Z,13.23
2022-11-01T07:13:15.401Z,13.27
2022-11-01T07:15:51.875Z,13.25
2022-11-01T07:18:22.971Z,12.36
2022-11-01T07:20:52.242Z,12.97
2022-11-01T07:23:21.417Z,13.28
2022-11-01T07:25:52.867Z,13.03
2022-11-01T07:28:19.697Z,12.60
2022-11-01T07:30:50.680Z,12.64
2022-11-01T07:33:17.847Z,12.79
2022-11-01T07:35:44.561Z,13.27
2022-11-01T07:38:16.732Z,13.39
2022-11-01T07:40:44.613Z,13.12
2022-11-01T07:43:11.612Z,13.50
2022-11-01T07:45:38.462Z,12.98
2022-11-01T07:48:10.611Z,13.09
2022-11-01T07:50:41.168Z,12.87
2022-11-01T07:53:13.562Z,13.57
2022-11-01T07:55:43.064Z,13.58
2022-11-01T07:58:12.090Z,13.62
2022-11-01T08:00:42.006Z,12.97
2022-11-01T08:03:14.304Z,12.81
2022-11-01T08:05:44.297Z,13.17
2022-11-01T08:08:14.193Z,13.27
2022-11-01T08:10:45.959Z,13.31
2022-11-01T08:13:27.263Z,13.59
2022-11-01T08:15:56.730Z,12.97
2022-11-01T08:18:24.500Z,13.60
2022-11-01T08:20:53.870Z,13.65
2022-11-01T08:23:20.453Z,13.68
2022-11-01T08:25:57.906Z,13.05
2022-11-01T08:28:24.608Z,13.32
2022-11-01T08:30:54.523Z,13.40
2022-11-01T08:33:23.148Z,13.29
2022-11-01T08:35:50.845Z,13.51
2022-11-01T08:38:25.717Z,13.15
2022-11-01T08:40:52.492Z,13.59
2022-11-01T08:43:21.487Z,13.30
2022-11-01T08:45:48.722Z,12.84
2022-11-01T08:48:24.501Z,13.15
2022-11-01T08:51:03.756Z,13.38
2022-11-01T08:53:42.752Z,13.93
2022-11-01T08:56:14.871Z,13.77
2022-11-01T08:58:46.831Z,13.61
2022-11-01T09:01:18.555Z,13.63
2022-11-01T09:03:47.568Z,13.47
2022-11-01T09:06:17.641Z,13.46
2022-11-01T09:08:48.909Z,13.64
2022-11-01T09:11:19.431Z,13.45
2022-11-01T09:13:46.311Z,13.25
2022-11-01T09:16:15.582Z,12.48
2022-11-01T09:18:45.045Z,13.72
2022-11-01T09:21:12.114Z,13.89
2022-11-01T09:23:41.085Z,13.55
2022-11-01T09:26:11.362Z,13.23
2022-11-01T09:28:40.704Z,13.47
2022-11-01T09:31:25.871Z,14.13
2022-11-01T09:34:04.410Z,13.68
2022-11-01T09:36:37.998Z,13.68
2022-11-01T09:39:04.853Z,13.99
2022-11-01T09:41:39.087Z,14.34
2022-11-01T09:44:06.697Z,14.12
2022-11-01T09:46:58.008Z,14.29
2022-11-01T09:49:52.081Z,14.01
2022-11-01T09:52:26.646Z,13.93
2022-11-01T09:54:56.257Z,13.82
2022-11-01T09:57:40.457Z,14.25
2022-11-01T10:00:10.678Z,13.96
2022-11-01T10:03:01.545Z,13.79
2022-11-01T10:05:48.542Z,13.99
2022-11-01T10:08:34.207Z,14.07
2022-11-01T10:11:38.373Z,14.10
2022-11-01T10:14:51.719Z,13.87
2022-11-01T10:17:27.686Z,14.28
2022-11-01T10:19:56.690Z,13.94
2022-11-01T10:22:31.535Z,13.84
2022-11-01T10:25:01.759Z,13.79
2022-11-01T10:27:55.947Z,14.30
2022-11-01T10:30:28.384Z,14.07
2022-11-01T10:33:09.175Z,13.85
2022-11-01T10:35:46.532Z,14.05
2022-11-01T10:38:30.216Z,14.12
2022-11-01T10:41:19.902Z,14.36
2022-11-01T10:43:55.372Z,14.41
2022-11-01T10:46:31.459Z,14.25
2022-11-01T10:49:07.919Z,14.33
2022-11-01T10:51:35.577Z,14.29
2022-11-01T10:54:05.726Z,14.32
2022-11-01T10:56:47.577Z,14.16
2022-11-01T10:59:28.538Z,14.02
2022-11-01T11:01:59.837Z,13.36
2022-11-01T11:04:26.749Z,13.12
2022-11-01T11:06:58.208Z,13.95
2022-11-01T11:09:30.089Z,14.06
2022-11-01T11:12:09.283Z,14.11
2022-11-01T11:14:36.161Z,14.48
2022-11-01T11:17:14.644Z,14.46
2022-11-01T11:19:43.308Z,14.44
2022-11-01T11:22:10.885Z,14.42
2022-11-01T11:24:42.365Z,14.25
2022-11-01T11:27:33.721Z,14.48
2022-11-01T11:30:01.747Z,14.59
2022-11-01T11:32:31.017Z,14.31
2022-11-01T11:35:33.997Z,14.71
2022-11-01T11:38:06.507Z,14.13
2022-11-01T11:40:47.726Z,14.63
2022-11-01T11:43:41.069Z,14.58
2022-11-01T11:46:21.610Z,14.49
2022-11-01T11:48:59.722Z,14.33
2022-11-01T11:51:42.140Z,14.42
2022-11-01T11:54:24.438Z,14.57
2022-11-01T11:57:13.548Z,13.50
2022-11-01T11:59:41.207Z,14.57
2022-11-01T12:02:30.191Z,14.66
2022-11-01T12:05:03.693Z,14.69
2022-11-01T12:07:45.731Z,14.69
2022-11-01T12:10:35.622Z,14.75
2022-11-01T12:13:21.092Z,13.39
2022-11-01T12:15:47.854Z,14.11
2022-11-01T12:18:19.047Z,13.93
2022-11-01T12:20:51.261Z,14.32
2022-11-01T12:23:30.580Z,14.90
2022-11-01T12:26:00.696Z,14.97
2022-11-01T12:28:40.686Z,15.05
2022-11-01T12:31:15.712Z,15.01
2022-11-01T12:33:50.694Z,14.41
2022-11-01T12:36:26.806Z,14.42
2022-11-01T12:39:16.409Z,14.91
2022-11-01T12:41:47.789Z,14.46
2022-11-01T12:44:37.380Z,15.04
2022-11-01T12:47:52.337Z,15.11
2022-11-01T12:50:24.563Z,14.96
2022-11-01T12:52:56.374Z,14.70
2022-11-01T12:55:32.613Z,14.87
2022-11-01T12:58:03.477Z,14.83
2022-11-01T13:00:47.585Z,15.08
2022-11-01T13:03:41.811Z,15.10
2022-11-01T13:06:46.453Z,15.12
2022-11-01T13:09:35.135Z,14.54
2022-11-01T13:12:21.082Z,15.16
2022-11-01T13:14:50.224Z,14.93
2022-11-01T13:17:43.037Z,15.23
2022-11-01T13:20:44.203Z,15.26
2022-11-01T13:23:18.805Z,13.80
2022-11-01T13:26:07.560Z,15.28
2022-11-01T13:29:04.891Z,15.26
2022-11-01T13:31:40.705Z,15.27
2022-11-01T13:34:33.939Z,15.29
2022-11-01T13:37:25.039Z,15.33
2022-11-01T13:39:57.931Z,14.85
2022-11-01T13:42:47.914Z,15.33
2022-11-01T13:45:33.259Z,15.46
2022-11-01T13:48:21.585Z,15.48
2022-11-01T13:51:15.766Z,14.90
2022-11-01T13:53:50.530Z,15.08
2022-11-01T13:56:33.992Z,14.37
2022-11-01T13:59:03.399Z,14.66
2022-11-01T14:01:39.851Z,15.36
2022-11-01T14:04:19.259Z,15.35
2022-11-01T14:07:14.401Z,15.35
2022-11-01T14:09:49.026Z,14.68
2022-11-01T14:12:33.476Z,15.35
2022-11-01T14:15:17.252Z,15.37
2022-11-01T14:17:55.935Z,15.32
2022-11-01T14:20:25.703Z,15.16
2022-11-01T14:22:54.951Z,13.92
2022-11-01T14:25:32.601Z,13.79
2022-11-01T14:28:24.948Z,15.06
2022-11-01T14:30:53.629Z,14.35
2022-11-01T14:33:21.430Z,13.49
2022-11-01T14:35:56.361Z,14.90
2022-11-01T14:38:35.317Z,14.61
2022-11-01T14:41:04.266Z,13.99
2022-11-01T14:43:34.954Z,14.92
2022-11-01T14:46:23.812Z,14.97
2022-11-01T14:48:51.692Z,14.46
2022-11-01T14:51:23.066Z,15.06
2022-11-01T14:54:01.778Z,13.94
2022-11-01T14:56:38.419Z,15.11
2022-11-01T14:59:13.373Z,15.10
2022-11-01T15:01:47.410Z,14.38
2022-11-01T15:04:44.226Z,14.43
2022-11-01T15:07:27.839Z,14.05
2022-11-01T15:10:09.669Z,14.87
2022-11-01T15:12:57.835Z,15.13
2022-11-01T15:15:53.259Z,15.05
2022-11-01T15:18:22.513Z,14.73
2022-11-01T15:20:54.941Z,14.99
2022-11-01T15:23:35.187Z,14.49
2022-11-01T15:26:07.357Z,14.97
2022-11-01T15:28:42.471Z,14.49
2022-11-01T15:31:10.166Z,14.04
2022-11-01T15:33:36.981Z,14.20
2022-11-01T15:36:19.569Z,13.75
2022-11-01T15:38:53.958Z,14.12
2022-11-01T15:41:29.121Z,14.35
2022-11-01T15:44:02.803Z,14.29
2022-11-01T15:46:38.302Z,14.34
2022-11-01T15:49:11.327Z,14.35
2022-11-01T15:51:57.047Z,14.30
2022-11-01T15:54:35.309Z,14.82
2022-11-01T15:57:05.488Z,13.78
2022-11-01T15:59:42.582Z,14.31
2022-11-01T16:02:22.774Z,13.84
2022-11-01T16:04:49.889Z,14.42
2022-11-01T16:07:21.363Z,13.81
2022-11-01T16:09:53.911Z,13.67
2022-11-01T16:12:35.616Z,13.98
2022-11-01T16:15:28.616Z,11.86
2022-11-01T16:17:59.074Z,12.67
2022-11-01T16:20:30.242Z,13.23
2022-11-01T16:23:01.504Z,13.02
2022-11-01T16:25:34.965Z,12.57
2022-11-01T16:28:29.080Z,13.73
2022-11-01T16:30:57.511Z,13.12
2022-11-01T16:33:29.050Z,12.80
2022-11-01T16:36:03.510Z,13.64
2022-11-01T16:38:33.126Z,13.56
2022-11-01T16:41:15.301Z,12.47
2022-11-01T16:43:42.270Z,13.04
2022-11-01T16:46:09.188Z,13.19
2022-11-01T16:48:48.163Z,12.64
2022-11-01T16:51:21.277Z,13.92
2022-11-01T16:53:50.445Z,12.01
2022-11-01T16:56:37.077Z,13.15
2022-11-01T16:59:16.594Z,14.12
2022-11-01T17:01:45.350Z,14.02
2022-11-01T17:04:13.782Z,13.76
2022-11-01T17:06:40.627Z,14.13
2022-11-01T17:09:17.735Z,13.26
2022-11-01T17:11:51.760Z,13.97
2022-11-01T17:14:19.525Z,13.82
2022-11-01T17:16:47.737Z,12.53
2022-11-01T17:19:22.977Z,12.49
2022-11-01T17:21:57.276Z,13.99
2022-11-01T17:24:27.301Z,14.11
2022-11-01T17:27:00.163Z,13.15
2022-11-01T17:29:30.058Z,14.27
2022-11-01T17:31:57.336Z,13.93
2022-11-01T17:34:29.954Z,11.61
2022-11-01T17:37:03.000Z,14.21
2022-11-01T17:39:34.083Z,13.32
2022-11-01T17:42:03.385Z,13.96
2022-11-01T17:44:32.492Z,13.92
2022-11-01T17:47:02.171Z,13.45
2022-11-01T17:49:29.706Z,14.16
2022-11-01T17:51:56.500Z,13.71
2022-11-01T17:56:57.578Z,14.09
2022-11-01T17:59:26.571Z,14.03
2022-11-01T18:01:56.940Z,14.05
2022-11-01T18:04:25.465Z,12.83
2022-11-01T18:07:07.208Z,14.14
2022-11-01T18:09:53.715Z,12.38
2022-11-01T18:12:34.834Z,13.00
2022-11-01T18:15:03.417Z,14.33
2022-11-01T18:17:54.091Z,12.65
2022-11-01T18:20:48.999Z,13.54
2022-11-01T18:23:18.915Z,12.77
2022-11-01T18:25:51.955Z,14.10
2022-11-01T18:28:26.507Z,14.19
2022-11-01T18:30:54.625Z,14.27
2022-11-01T18:33:45.480Z,14.19
2022-11-01T18:36:33.840Z,14.00
2022-11-01T18:39:33.398Z,13.89
2022-11-01T18:42:01.021Z,13.87
2022-11-01T18:44:30.227Z,13.49
2022-11-01T18:47:01.231Z,13.87
2022-11-01T18:49:28.317Z,13.86
2022-11-01T18:51:55.367Z,12.02
2022-11-01T18:54:27.747Z,13.74
2022-11-01T18:56:59.900Z,12.01
2022-11-01T18:59:29.450Z,13.58
2022-11-01T19:02:03.458Z,12.54
2022-11-01T19:04:35.726Z,13.57
2022-11-01T19:07:14.027Z,13.47
2022-11-01T19:09:44.109Z,13.09
2022-11-01T19:12:26.912Z,13.20
2022-11-01T19:15:15.597Z,13.02
2022-11-01T19:17:47.814Z,13.30
2022-11-01T19:20:21.270Z,13.37
2022-11-01T19:22:48.131Z,12.06
2022-11-01T19:25:22.870Z,13.25
2022-11-01T19:27:56.461Z,12.99
2022-11-01T19:30:31.575Z,13.26
2022-11-01T19:33:07.457Z,13.09
2022-11-01T19:35:34.243Z,13.15
2022-11-01T19:38:03.595Z,12.17
2022-11-01T19:40:35.120Z,12.04
2022-11-01T19:43:19.759Z,12.87
2022-11-01T19:45:51.807Z,12.91
2022-11-01T19:48:22.905Z,12.95
2022-11-01T19:50:51.842Z,11.36
2022-11-01T19:53:28.540Z,12.97
2022-11-01T19:56:01.856Z,13.06
2022-11-01T19:58:28.632Z,13.08
2022-11-01T20:01:14.158Z,12.97
2022-11-01T20:04:24.579Z,12.42
2022-11-01T20:06:57.612Z,10.76
2022-11-01T20:09:30.531Z,12.79
2022-11-01T20:11:57.205Z,11.90
2022-11-01T20:14:23.936Z,11.40
2022-11-01T20:16:50.627Z,12.42
2022-11-01T20:19:18.023Z,12.70
2022-11-01T20:21:49.632Z,12.79
2022-11-01T20:24:18.885Z,13.09
2022-11-01T20:26:45.568Z,13.03
2022-11-01T20:29:12.968Z,11.80
2022-11-01T20:31:50.122Z,12.80
2022-11-01T20:34:24.466Z,12.09
2022-11-01T20:37:14.975Z,12.91
2022-11-01T20:39:53.190Z,11.61
2022-11-01T20:42:41.020Z,10.40
2022-11-01T20:45:21.959Z,9.89
2022-11-01T20:47:48.810Z,12.82
2022-11-01T20:50:16.429Z,12.85
2022-11-01T20:52:44.119Z,12.54
2022-11-01T20:55:12.263Z,12.99
2022-11-01T20:57:42.298Z,8.69
2022-11-01T21:00:15.779Z,13.00
2022-11-01T21:02:45.207Z,13.09
2022-11-01T21:05:17.288Z,13.26
2022-11-01T21:07:48.084Z,11.53
2022-11-01T21:10:35.466Z,12.83
2022-11-01T21:13:08.878Z,11.58
2022-11-01T21:15:46.781Z,12.91
2022-11-01T21:18:13.757Z,13.29
2022-11-01T21:20:47.368Z,12.02
2022-11-01T21:23:38.016Z,10.94
2022-11-01T21:26:15.386Z,11.98
2022-11-01T21:28:47.226Z,12.39
2022-11-01T21:31:30.165Z,13.03
2022-11-01T21:34:12.957Z,13.13
2022-11-01T21:36:44.547Z,13.07
2022-11-01T21:39:27.364Z,12.17
2022-11-01T21:41:58.931Z,12.98
2022-11-01T21:44:39.927Z,10.73
2022-11-01T21:47:07.564Z,13.00
2022-11-01T21:49:35.258Z,11.28
2022-11-01T21:52:04.775Z,12.41
2022-11-01T21:54:35.318Z,12.99
2022-11-01T21:57:05.385Z,12.39
2022-11-01T21:59:32.752Z,12.88
2022-11-01T22:02:01.470Z,12.86
2022-11-01T22:04:32.253Z,12.53
2022-11-01T22:07:04.177Z,12.26
2022-11-01T22:09:33.297Z,12.71
2022-11-01T22:12:00.055Z,12.34
2022-11-01T22:14:29.047Z,12.99
2022-11-01T22:16:59.053Z,12.66
2022-11-01T22:19:25.807Z,13.07
2022-11-01T22:21:57.286Z,12.69
2022-11-01T22:24:24.004Z,12.89
2022-11-01T22:26:55.423Z,12.63
2022-11-01T22:29:24.553Z,12.25
2022-11-01T22:31:51.287Z,12.02
2022-11-01T22:34:18.218Z,12.90
2022-11-01T22:36:47.588Z,12.75
2022-11-01T22:39:20.960Z,12.91
2022-11-01T22:41:49.946Z,12.51
2022-11-01T22:44:19.056Z,12.06
2022-11-01T22:46:51.285Z,12.92
2022-11-01T22:49:29.636Z,11.73
2022-11-01T22:52:00.674Z,11.21
2022-11-01T22:54:42.523Z,11.88
2022-11-01T22:57:11.413Z,12.94
2022-11-01T23:00:09.937Z,12.99
2022-11-01T23:02:39.202Z,12.41
2022-11-01T23:05:08.573Z,13.04
2022-11-01T23:07:42.622Z,13.03
2022-11-01T23:10:32.118Z,13.04
2022-11-01T23:13:29.650Z,12.97
2022-11-01T23:16:30.401Z,11.27
2022-11-01T23:19:03.961Z,11.95
2022-11-01T23:21:30.636Z,12.23
2022-11-01T23:23:57.576Z,12.60
2022-11-01T23:26:24.688Z,12.64
2022-11-01T23:28:58.123Z,11.93
2022-11-01T23:31:31.562Z,12.80
2022-11-01T23:34:03.050Z,12.82
2022-11-01T23:36:30.623Z,12.82
2022-11-01T23:39:03.700Z,12.15
2022-11-01T23:41:36.927Z,12.86
2022-11-01T23:44:14.433Z,12.85
2022-11-01T23:46:43.261Z,12.67
2022-11-01T23:49:36.174Z,12.16
2022-11-01T23:52:10.260Z,11.95
2022-11-01T23:54:43.112Z,12.59
2022-11-01T23:57:16.475Z,12.52
2022-11-01T23:59:43.158Z,11.74
